createdAt,value
2018-09-24T00:02:08.365Z,31.87
2018-09-24T00:04:37.002Z,40.33
2018-09-24T00:07:05.716Z,35.30
2018-09-24T00:09:34.570Z,28.97
2018-09-24T00:12:03.316Z,35.57
2018-09-24T00:14:31.942Z,37.53
2018-09-24T00:17:00.422Z,31.77
2018-09-24T00:19:28.856Z,30.13
2018-09-24T00:21:57.455Z,36.23
2018-09-24T00:24:26.139Z,35.10
2018-09-24T00:26:54.899Z,35.63
2018-09-24T00:29:23.675Z,42.97
2018-09-24T00:31:52.350Z,44.80
2018-09-24T00:34:20.982Z,43.73
2018-09-24T00:36:49.497Z,42.50
2018-09-24T00:39:18.096Z,46.20
2018-09-24T00:41:46.767Z,46.23
2018-09-24T00:44:15.474Z,54.07
2018-09-24T00:46:44.005Z,47.53
2018-09-24T00:49:12.647Z,50.23
2018-09-24T00:51:41.208Z,50.73
2018-09-24T00:54:09.763Z,46.90
2018-09-24T00:56:38.325Z,48.67
2018-09-24T00:59:06.933Z,62.80
2018-09-24T01:01:35.616Z,45.90
2018-09-24T01:04:04.383Z,49.70
2018-09-24T01:06:33.059Z,50.83
2018-09-24T01:09:01.689Z,60.20
2018-09-24T01:11:30.302Z,48.03
2018-09-24T01:13:58.884Z,59.73
2018-09-24T01:16:27.507Z,71.40
2018-09-24T01:18:55.975Z,69.30
2018-09-24T01:21:24.615Z,50.83
2018-09-24T01:23:53.224Z,45.87
2018-09-24T01:26:21.869Z,60.70
2018-09-24T01:28:51.031Z,49.70
2018-09-24T01:31:19.547Z,51.67
2018-09-24T01:33:48.156Z,47.47
2018-09-24T01:36:16.817Z,54.07
2018-09-24T01:38:45.605Z,46.73
2018-09-24T01:41:14.430Z,62.10
2018-09-24T01:43:43.121Z,50.27
2018-09-24T01:46:11.861Z,56.30
2018-09-24T01:48:40.426Z,44.30
2018-09-24T01:51:08.939Z,42.97
2018-09-24T01:53:37.865Z,50.90
2018-09-24T01:56:06.642Z,41.80
2018-09-24T01:58:37.729Z,40.60
2018-09-24T02:01:07.472Z,57.03
2018-09-24T02:03:36.486Z,41.30
2018-09-24T02:06:05.741Z,45.13
2018-09-24T02:08:41.847Z,41.17
2018-09-24T02:11:10.552Z,45.87
2018-09-24T02:13:49.335Z,45.67
2018-09-24T02:16:18.543Z,47.80
2018-09-24T02:18:47.736Z,38.20
2018-09-24T02:21:16.691Z,47.27
2018-09-24T02:23:45.346Z,47.23
2018-09-24T02:26:14.082Z,39.87
2018-09-24T02:28:42.509Z,40.97
2018-09-24T02:31:11.167Z,37.63
2018-09-24T02:33:39.827Z,35.30
2018-09-24T02:36:08.602Z,41.60
2018-09-24T02:38:40.299Z,42.00
2018-09-24T02:41:09.060Z,47.07
2018-09-24T02:43:37.692Z,38.60
2018-09-24T02:46:06.223Z,38.47
2018-09-24T02:48:34.839Z,42.20
2018-09-24T02:51:03.793Z,39.00
2018-09-24T02:53:38.510Z,31.80
2018-09-24T02:56:07.502Z,29.67
2018-09-24T02:58:36.398Z,35.93
2018-09-24T03:01:05.074Z,32.50
2018-09-24T03:03:33.757Z,21.23
2018-09-24T03:06:02.524Z,31.70
2018-09-24T03:08:31.339Z,31.67
2018-09-24T03:11:04.690Z,31.17
2018-09-24T03:13:33.430Z,31.97
2018-09-24T03:16:02.204Z,29.00
2018-09-24T03:18:30.679Z,32.80
2018-09-24T03:20:59.373Z,32.07
2018-09-24T03:23:27.919Z,31.97
2018-09-24T03:25:56.492Z,23.43
2018-09-24T03:28:25.259Z,29.00
2018-09-24T03:30:54.026Z,32.30
2018-09-24T03:33:22.768Z,30.63
2018-09-24T03:35:51.455Z,26.27
2018-09-24T03:38:20.083Z,27.50
2018-09-24T03:40:48.721Z,30.43
2018-09-24T03:43:17.469Z,24.50
2018-09-24T03:45:46.149Z,29.03
2018-09-24T03:48:14.860Z,27.17
2018-09-24T03:50:43.496Z,34.23
2018-09-24T03:53:12.077Z,36.20
2018-09-24T03:55:40.673Z,26.00
2018-09-24T03:58:09.448Z,25.17
2018-09-24T04:00:38.116Z,26.43
2018-09-24T04:03:06.734Z,26.90
2018-09-24T04:05:40.845Z,30.10
2018-09-24T04:08:14.962Z,30.00
2018-09-24T04:10:49.021Z,27.43
2018-09-24T04:13:22.796Z,27.77
2018-09-24T04:15:56.768Z,32.20
2018-09-24T04:18:30.638Z,24.60
2018-09-24T04:21:04.621Z,31.17
2018-09-24T04:23:38.631Z,20.63
2018-09-24T04:26:12.796Z,24.73
2018-09-24T04:28:46.727Z,27.70
2018-09-24T04:31:21.170Z,23.90
2018-09-24T04:33:55.343Z,26.33
2018-09-24T04:36:29.464Z,27.03
2018-09-24T04:39:03.699Z,24.23
2018-09-24T04:41:37.774Z,21.90
2018-09-24T04:44:11.869Z,27.47
2018-09-24T04:46:45.907Z,25.20
2018-09-24T04:49:20.053Z,24.87
2018-09-24T04:51:54.001Z,20.80
2018-09-24T04:54:27.908Z,25.30
2018-09-24T04:57:01.943Z,17.60
2018-09-24T04:59:35.837Z,29.10
2018-09-24T05:02:09.921Z,21.80
2018-09-24T05:04:44.148Z,20.13
2018-09-24T05:07:18.583Z,27.53
2018-09-24T05:09:55.177Z,19.83
2018-09-24T05:12:29.317Z,17.80
2018-09-24T05:15:03.340Z,18.83
2018-09-24T05:17:37.333Z,11.80
2018-09-24T05:20:11.507Z,15.30
2018-09-24T05:22:45.450Z,24.47
2018-09-24T05:25:19.840Z,21.23
2018-09-24T05:27:54.201Z,23.23
2018-09-24T05:30:28.205Z,29.87
2018-09-24T05:33:02.375Z,18.20
2018-09-24T05:35:36.182Z,26.47
2018-09-24T05:38:10.171Z,21.30
2018-09-24T05:40:44.336Z,21.80
2018-09-24T05:43:18.142Z,23.97
2018-09-24T05:45:52.066Z,23.53
2018-09-24T05:48:26.311Z,21.53
2018-09-24T05:51:00.536Z,22.53
2018-09-24T05:53:34.893Z,24.70
2018-09-24T05:56:08.949Z,16.73
2018-09-24T05:58:42.641Z,21.07
2018-09-24T06:01:16.437Z,15.70
2018-09-24T06:03:50.321Z,15.93
2018-09-24T06:06:24.204Z,20.63
2018-09-24T06:08:58.084Z,12.47
2018-09-24T06:11:31.963Z,18.43
2018-09-24T06:14:06.409Z,11.37
2018-09-24T06:16:40.532Z,22.83
2018-09-24T06:19:14.504Z,14.60
2018-09-24T06:21:48.643Z,19.33
2018-09-24T06:24:22.756Z,18.33
2018-09-24T06:26:56.948Z,12.20
2018-09-24T06:29:31.059Z,13.47
2018-09-24T06:32:05.391Z,11.40
2018-09-24T06:34:39.574Z,19.83
2018-09-24T06:37:13.428Z,12.17
2018-09-24T06:39:47.440Z,11.90
2018-09-24T06:42:21.519Z,13.43
2018-09-24T06:44:55.347Z,14.53
2018-09-24T06:47:29.165Z,12.17
2018-09-24T06:50:03.926Z,11.53
2018-09-24T06:52:37.781Z,16.23
2018-09-24T06:55:11.936Z,11.67
2018-09-24T06:57:46.090Z,8.57
2018-09-24T07:00:20.357Z,10.33
2018-09-24T07:02:54.323Z,8.30
2018-09-24T07:05:28.849Z,12.87
2018-09-24T07:08:12.748Z,10.83
2018-09-24T07:10:46.841Z,6.30
2018-09-24T07:13:22.376Z,5.53
2018-09-24T07:15:56.707Z,8.87
2018-09-24T07:18:30.988Z,7.93
2018-09-24T07:21:06.644Z,5.33
2018-09-24T07:23:40.569Z,6.23
2018-09-24T07:26:14.711Z,7.93
2018-09-24T07:28:48.708Z,6.20
2018-09-24T07:31:23.234Z,4.83
2018-09-24T07:33:57.138Z,5.80
2018-09-24T07:36:31.213Z,3.97
2018-09-24T07:39:05.985Z,4.40
2018-09-24T07:41:40.223Z,6.77
2018-09-24T07:44:14.826Z,5.73
2018-09-24T07:46:48.864Z,4.80
2018-09-24T07:49:23.626Z,6.50
2018-09-24T07:51:59.284Z,3.90
2018-09-24T07:54:33.389Z,4.30
2018-09-24T07:57:08.316Z,3.27
2018-09-24T07:59:42.843Z,2.97
2018-09-24T08:02:17.330Z,3.90
2018-09-24T08:04:51.251Z,2.90
2018-09-24T08:07:25.094Z,3.70
2018-09-24T08:09:58.992Z,4.33
2018-09-24T08:12:32.792Z,4.00
2018-09-24T08:15:07.264Z,2.60
2018-09-24T08:17:41.194Z,2.50
2018-09-24T08:20:15.249Z,4.50
2018-09-24T08:22:49.364Z,4.77
2018-09-24T08:25:23.398Z,8.17
2018-09-24T08:27:57.420Z,4.77
2018-09-24T08:30:32.421Z,5.23
2018-09-24T08:33:06.568Z,5.60
2018-09-24T08:35:41.555Z,4.73
2018-09-24T08:38:15.645Z,7.53
2018-09-24T08:40:50.991Z,6.53
2018-09-24T08:43:24.841Z,5.43
2018-09-24T08:45:58.914Z,5.87
2018-09-24T08:48:33.032Z,4.10
2018-09-24T08:51:07.270Z,7.00
2018-09-24T08:53:41.375Z,4.10
2018-09-24T08:56:15.252Z,6.03
2018-09-24T08:58:49.431Z,3.67
2018-09-24T09:01:23.607Z,4.50
2018-09-24T09:03:57.668Z,4.93
2018-09-24T09:06:31.445Z,6.33
2018-09-24T09:09:05.787Z,35.93
2018-09-24T09:11:41.098Z,7.70
2018-09-24T09:14:14.955Z,3.17
2018-09-24T09:16:48.870Z,5.50
2018-09-24T09:19:23.065Z,15.33
2018-09-24T09:21:58.520Z,4.97
2018-09-24T09:24:37.894Z,4.63
2018-09-24T09:27:11.861Z,4.70
2018-09-24T09:29:45.904Z,3.43
2018-09-24T09:32:21.533Z,7.53
2018-09-24T09:34:55.727Z,3.40
2018-09-24T09:37:29.825Z,2.50
2018-09-24T09:40:03.824Z,4.70
2018-09-24T09:42:44.816Z,5.47
2018-09-24T09:45:19.895Z,4.27
2018-09-24T09:47:53.851Z,8.60
2018-09-24T09:50:29.486Z,8.67
2018-09-24T09:53:03.756Z,9.33
2018-09-24T09:55:37.701Z,10.20
2018-09-24T09:58:11.846Z,6.90
2018-09-24T10:00:46.078Z,6.80
2018-09-24T10:03:20.488Z,7.07
2018-09-24T10:05:54.843Z,7.90
2018-09-24T10:08:28.965Z,8.10
2018-09-24T10:11:03.977Z,11.00
2018-09-24T10:13:38.101Z,9.73
2018-09-24T10:16:12.448Z,9.43
2018-09-24T10:18:46.517Z,5.97
2018-09-24T10:21:21.229Z,8.80
2018-09-24T10:23:55.381Z,7.00
2018-09-24T10:26:29.427Z,8.27
2018-09-24T10:29:03.216Z,15.50
2018-09-24T10:31:36.957Z,7.10
2018-09-24T10:34:10.796Z,4.17
2018-09-24T10:36:48.126Z,9.73
2018-09-24T10:39:22.241Z,8.37
2018-09-24T10:41:56.120Z,4.70
2018-09-24T10:44:29.918Z,7.60
2018-09-24T10:47:03.686Z,9.83
2018-09-24T10:49:37.583Z,8.20
2018-09-24T10:52:11.556Z,10.37
2018-09-24T10:54:45.589Z,6.97
2018-09-24T10:57:19.566Z,4.83
2018-09-24T10:59:53.669Z,4.27
2018-09-24T11:02:27.583Z,8.93
2018-09-24T11:05:01.548Z,11.30
2018-09-24T11:07:35.483Z,9.23
2018-09-24T11:10:09.448Z,5.47
2018-09-24T11:12:43.317Z,5.43
2018-09-24T11:15:17.186Z,4.77
2018-09-24T11:17:51.460Z,6.37
2018-09-24T11:20:25.397Z,6.27
2018-09-24T11:22:59.188Z,5.13
2018-09-24T11:25:32.921Z,15.33
2018-09-24T11:28:06.944Z,3.93
2018-09-24T11:30:40.975Z,4.03
2018-09-24T11:33:15.051Z,5.20
2018-09-24T11:35:48.926Z,5.13
2018-09-24T11:38:22.984Z,5.30
2018-09-24T11:40:56.835Z,5.80
2018-09-24T11:43:30.854Z,5.97
2018-09-24T11:46:06.185Z,4.37
2018-09-24T11:48:40.060Z,10.07
2018-09-24T11:51:13.993Z,4.40
2018-09-24T11:53:47.896Z,6.07
2018-09-24T11:56:21.942Z,9.47
2018-09-24T11:58:55.885Z,6.93
2018-09-24T12:01:30.034Z,2.33
2018-09-24T12:04:04.667Z,7.43
2018-09-24T12:06:39.147Z,4.50
2018-09-24T12:09:14.631Z,3.03
2018-09-24T12:11:49.215Z,5.87
2018-09-24T12:14:24.571Z,7.80
2018-09-24T12:16:58.989Z,4.83
2018-09-24T12:19:34.097Z,6.53
2018-09-24T12:22:08.382Z,6.73
2018-09-24T12:24:42.291Z,8.43
2018-09-24T12:27:20.019Z,6.00
2018-09-24T12:29:54.554Z,8.10
2018-09-24T12:32:28.332Z,5.00
2018-09-24T12:35:04.539Z,3.83
2018-09-24T12:37:38.565Z,5.73
2018-09-24T12:40:13.213Z,5.93
2018-09-24T12:42:47.210Z,5.53
2018-09-24T12:45:21.160Z,2.23
2018-09-24T12:47:55.125Z,3.83
2018-09-24T12:50:29.236Z,4.10
2018-09-24T12:53:04.090Z,3.87
2018-09-24T12:55:41.184Z,5.07
2018-09-24T12:58:15.270Z,5.10
2018-09-24T13:00:49.772Z,3.93
2018-09-24T13:03:23.828Z,6.30
2018-09-24T13:05:59.546Z,1.37
2018-09-24T13:08:33.760Z,5.80
2018-09-24T13:11:08.027Z,1.83
2018-09-24T13:13:41.955Z,2.07
2018-09-24T13:16:16.264Z,2.80
2018-09-24T13:18:53.439Z,2.93
2018-09-24T13:21:32.445Z,3.57
2018-09-24T13:24:06.405Z,2.07
2018-09-24T13:26:42.132Z,2.60
2018-09-24T13:29:16.156Z,5.13
2018-09-24T13:31:57.223Z,5.90
2018-09-24T13:34:31.312Z,3.07
2018-09-24T13:37:05.659Z,4.80
2018-09-24T13:39:39.470Z,3.97
2018-09-24T13:42:13.651Z,3.73
2018-09-24T13:44:47.743Z,3.67
2018-09-24T13:47:23.140Z,2.90
2018-09-24T13:49:57.991Z,2.53
2018-09-24T13:52:33.707Z,5.67
2018-09-24T13:55:07.822Z,8.00
2018-09-24T13:57:41.897Z,8.93
2018-09-24T14:00:16.062Z,3.33
2018-09-24T14:02:50.261Z,2.43
2018-09-24T14:05:24.489Z,6.97
2018-09-24T14:07:58.536Z,6.00
2018-09-24T14:10:32.382Z,6.33
2018-09-24T14:13:06.266Z,6.20
2018-09-24T14:15:41.510Z,8.83
2018-09-24T14:18:15.699Z,7.60
2018-09-24T14:20:49.747Z,4.70
2018-09-24T14:23:23.885Z,7.30
2018-09-24T14:25:58.529Z,4.87
2018-09-24T14:28:32.825Z,5.70
2018-09-24T14:31:07.910Z,6.37
2018-09-24T14:33:42.371Z,4.50
2018-09-24T14:36:16.660Z,6.13
2018-09-24T14:38:50.753Z,6.03
2018-09-24T14:41:25.124Z,10.30
2018-09-24T14:43:59.605Z,4.80
2018-09-24T14:46:43.114Z,10.97
2018-09-24T14:49:18.572Z,7.50
2018-09-24T14:51:53.095Z,4.33
2018-09-24T14:54:27.235Z,6.37
2018-09-24T14:57:01.567Z,2.83
2018-09-24T14:59:36.472Z,5.20
2018-09-24T15:02:10.907Z,12.70
2018-09-24T15:04:45.102Z,4.37
2018-09-24T15:07:19.297Z,4.00
2018-09-24T15:09:53.492Z,5.70
2018-09-24T15:12:27.817Z,6.67
2018-09-24T15:15:02.481Z,9.33
2018-09-24T15:17:36.497Z,6.63
2018-09-24T15:20:10.570Z,5.90
2018-09-24T15:22:45.025Z,8.37
2018-09-24T15:25:19.043Z,6.00
2018-09-24T15:27:53.096Z,3.37
2018-09-24T15:30:27.199Z,12.60
2018-09-24T15:33:01.086Z,9.83
2018-09-24T15:35:35.060Z,11.40
2018-09-24T15:38:09.099Z,6.57
2018-09-24T15:40:43.304Z,9.00
2018-09-24T15:43:17.235Z,7.33
2018-09-24T15:45:51.439Z,6.93
2018-09-24T15:48:25.401Z,6.47
2018-09-24T15:50:59.631Z,7.60
2018-09-24T15:53:33.504Z,5.33
2018-09-24T15:56:07.265Z,6.87
2018-09-24T15:58:41.334Z,5.87
2018-09-24T16:01:15.707Z,5.63
2018-09-24T16:03:50.495Z,7.73
2018-09-24T16:06:24.843Z,8.20
2018-09-24T16:08:59.052Z,11.90
2018-09-24T16:11:33.067Z,5.77
2018-09-24T16:14:07.382Z,10.67
2018-09-24T16:16:41.157Z,5.87
2018-09-24T16:19:16.212Z,9.90
2018-09-24T16:21:50.266Z,10.80
2018-09-24T16:24:24.231Z,5.27
2018-09-24T16:26:58.120Z,10.03
2018-09-24T16:29:32.580Z,12.13
2018-09-24T16:32:06.501Z,7.70
2018-09-24T16:34:40.935Z,4.50
2018-09-24T16:37:14.696Z,9.00
2018-09-24T16:39:48.862Z,4.43
2018-09-24T16:42:24.123Z,8.70
2018-09-24T16:44:58.360Z,11.40
2018-09-24T16:47:32.422Z,5.13
2018-09-24T16:50:06.272Z,9.47
2018-09-24T16:52:40.104Z,2.60
2018-09-24T16:55:14.357Z,7.10
2018-09-24T16:57:48.415Z,7.30
2018-09-24T17:00:22.169Z,9.27
2018-09-24T17:02:56.063Z,6.70
2018-09-24T17:05:30.058Z,4.60
2018-09-24T17:08:03.913Z,7.10
2018-09-24T17:10:37.887Z,7.27
2018-09-24T17:13:11.902Z,14.03
2018-09-24T17:15:45.683Z,5.83
2018-09-24T17:18:19.596Z,12.53
2018-09-24T17:20:53.499Z,6.70
2018-09-24T17:23:27.319Z,7.80
2018-09-24T17:26:01.098Z,9.07
2018-09-24T17:28:35.253Z,8.20
2018-09-24T17:31:09.360Z,8.53
2018-09-24T17:33:43.384Z,10.43
2018-09-24T17:36:17.616Z,17.90
2018-09-24T17:41:32.423Z,14.00
2018-09-24T17:44:10.440Z,11.83
2018-09-24T17:46:44.554Z,7.03
2018-09-24T17:49:18.470Z,9.50
2018-09-24T17:51:52.344Z,5.80
2018-09-24T17:54:26.239Z,11.67
2018-09-24T17:57:00.314Z,6.10
2018-09-24T17:59:34.367Z,11.80
2018-09-24T18:02:15.304Z,10.23
2018-09-24T18:04:49.495Z,16.80
2018-09-24T18:07:23.587Z,6.83
2018-09-24T18:09:57.775Z,5.10
2018-09-24T18:12:31.906Z,9.53
2018-09-24T18:15:05.964Z,11.23
2018-09-24T18:17:40.090Z,9.67
2018-09-24T18:20:14.192Z,6.27
2018-09-24T18:22:48.278Z,8.70
2018-09-24T18:25:22.259Z,7.60
2018-09-24T18:27:56.120Z,11.20
2018-09-24T18:30:30.332Z,8.77
2018-09-24T18:33:04.405Z,10.60
2018-09-24T18:35:38.640Z,9.77
2018-09-24T18:38:13.956Z,13.77
2018-09-24T18:40:48.013Z,4.70
2018-09-24T18:43:22.008Z,15.20
2018-09-24T18:45:56.061Z,20.93
2018-09-24T18:48:30.243Z,12.00
2018-09-24T18:51:04.638Z,10.20
2018-09-24T18:53:38.823Z,8.27
2018-09-24T18:56:13.141Z,9.63
2018-09-24T18:58:47.138Z,8.70
2018-09-24T19:01:21.172Z,10.07
2018-09-24T19:03:55.207Z,9.00
2018-09-24T19:06:29.402Z,6.00
2018-09-24T19:09:03.478Z,12.87
2018-09-24T19:11:37.467Z,17.10
2018-09-24T19:14:11.526Z,4.43
2018-09-24T19:16:45.703Z,4.50
2018-09-24T19:19:19.698Z,7.50
2018-09-24T19:21:53.691Z,11.40
2018-09-24T19:24:27.588Z,12.60
2018-09-24T19:27:01.561Z,11.70
2018-09-24T19:29:35.478Z,7.80
2018-09-24T19:32:10.310Z,10.33
2018-09-24T19:34:44.335Z,8.50
2018-09-24T19:37:18.398Z,15.83
2018-09-24T19:39:52.452Z,6.00
2018-09-24T19:42:26.535Z,6.73
2018-09-24T19:45:00.430Z,15.23
2018-09-24T19:47:34.600Z,14.40
2018-09-24T19:50:08.678Z,7.60
2018-09-24T19:52:42.734Z,5.03
2018-09-24T19:55:16.688Z,4.50
2018-09-24T19:57:50.583Z,9.43
2018-09-24T20:00:24.519Z,6.60
2018-09-24T20:02:58.597Z,5.67
2018-09-24T20:05:32.809Z,7.13
2018-09-24T20:08:06.747Z,8.10
2018-09-24T20:10:40.716Z,5.60
2018-09-24T20:13:14.993Z,5.30
2018-09-24T20:15:49.093Z,6.43
2018-09-24T20:18:23.123Z,8.00
2018-09-24T20:20:57.299Z,6.37
2018-09-24T20:23:31.207Z,4.50
2018-09-24T20:26:05.430Z,6.00
2018-09-24T20:28:39.614Z,5.70
2018-09-24T20:31:13.683Z,7.50
2018-09-24T20:33:47.726Z,4.70
2018-09-24T20:36:21.570Z,8.93
2018-09-24T20:38:55.757Z,4.40
2018-09-24T20:41:29.618Z,11.60
2018-09-24T20:44:03.600Z,7.83
2018-09-24T20:46:37.408Z,6.80
2018-09-24T20:49:11.685Z,6.97
2018-09-24T20:51:45.569Z,4.93
2018-09-24T20:54:19.494Z,5.77
2018-09-24T20:56:53.550Z,6.50
2018-09-24T20:59:27.504Z,9.20
2018-09-24T21:02:01.899Z,7.17
2018-09-24T21:04:35.996Z,7.07
2018-09-24T21:07:09.849Z,4.10
2018-09-24T21:09:43.945Z,9.93
2018-09-24T21:12:17.841Z,7.00
2018-09-24T21:14:51.735Z,6.50
2018-09-24T21:17:25.750Z,7.03
2018-09-24T21:19:59.865Z,7.27
2018-09-24T21:22:33.759Z,8.67
2018-09-24T21:25:07.710Z,7.23
2018-09-24T21:27:41.870Z,6.07
2018-09-24T21:30:15.832Z,4.07
2018-09-24T21:32:49.799Z,9.00
2018-09-24T21:35:23.762Z,5.73
2018-09-24T21:37:57.589Z,9.63
2018-09-24T21:40:31.584Z,6.87
2018-09-24T21:43:05.541Z,9.13
2018-09-24T21:45:39.875Z,17.63
2018-09-24T21:48:13.949Z,12.70
2018-09-24T21:50:48.045Z,16.50
2018-09-24T21:53:22.000Z,11.53
2018-09-24T21:55:56.096Z,12.17
2018-09-24T21:58:29.971Z,16.33
2018-09-24T22:01:03.907Z,8.20
2018-09-24T22:03:38.000Z,9.23
2018-09-24T22:06:12.357Z,10.10
2018-09-24T22:08:46.601Z,14.83
2018-09-24T22:11:20.545Z,9.50
2018-09-24T22:13:54.653Z,8.63
2018-09-24T22:16:28.816Z,9.73
2018-09-24T22:19:02.855Z,8.40
2018-09-24T22:21:36.745Z,17.20
2018-09-24T22:24:10.704Z,12.73
2018-09-24T22:26:44.616Z,9.03
2018-09-24T22:29:18.757Z,7.17
2018-09-24T22:31:52.905Z,12.83
2018-09-24T22:34:26.919Z,8.03
2018-09-24T22:37:00.815Z,5.83
2018-09-24T22:39:34.833Z,7.13
2018-09-24T22:42:09.125Z,7.70
2018-09-24T22:44:43.180Z,8.50
2018-09-24T22:47:17.234Z,13.40
2018-09-24T22:49:51.289Z,9.50
2018-09-24T22:52:25.404Z,5.60
2018-09-24T22:54:59.419Z,5.93
2018-09-24T22:57:33.373Z,8.83
2018-09-24T23:00:07.509Z,6.57
2018-09-24T23:02:41.438Z,4.60
2018-09-24T23:05:15.519Z,7.50
2018-09-24T23:07:49.499Z,6.47
2018-09-24T23:10:23.389Z,11.37
2018-09-24T23:12:57.405Z,9.53
2018-09-24T23:15:31.560Z,13.37
2018-09-24T23:18:05.758Z,11.90
2018-09-24T23:20:39.791Z,8.10
2018-09-24T23:23:13.725Z,10.23
2018-09-24T23:25:47.738Z,9.43
2018-09-24T23:28:22.079Z,10.97
2018-09-24T23:30:56.390Z,40.10
2018-09-24T23:33:30.484Z,8.50
2018-09-24T23:36:04.400Z,18.07
2018-09-24T23:38:38.456Z,7.90
2018-09-24T23:41:12.389Z,7.47
2018-09-24T23:43:46.418Z,8.47
2018-09-24T23:46:20.480Z,13.87
2018-09-24T23:48:54.554Z,12.33
2018-09-24T23:51:28.694Z,16.20
2018-09-24T23:54:02.864Z,7.93
2018-09-24T23:56:37.045Z,8.30
2018-09-24T23:59:11.215Z,8.10
